sensor_id;sensor_type;location;lat;lon;timestamp;P1;durP1;ratioP1;P2;durP2;ratioP2
59974;SDS011;62136;-35.664;-63.766;2023-06-10T00:02:20;9.90;;;5.55;;
59974;SDS011;62136;-35.664;-63.766;2023-06-10T00:04:47;9.35;;;5.35;;
59974;SDS011;62136;-35.664;-63.766;2023-06-10T00:07:15;6.13;;;5.50;;
59974;SDS011;62136;-35.664;-63.766;2023-06-10T00:09:42;6.75;;;5.25;;
59974;SDS011;62136;-35.664;-63.766;2023-06-10T00:12:11;8.30;;;5.35;;
59974;SDS011;62136;-35.664;-63.766;2023-06-10T00:14:39;6.95;;;5.53;;
59974;SDS011;62136;-35.664;-63.766;2023-06-10T00:17:06;7.10;;;5.25;;
59974;SDS011;62136;-35.664;-63.766;2023-06-10T00:19:34;6.63;;;5.88;;
59974;SDS011;62136;-35.664;-63.766;2023-06-10T00:22:07;6.82;;;5.13;;
59974;SDS011;62136;-35.664;-63.766;2023-06-10T00:24:36;5.93;;;4.80;;
59974;SDS011;62136;-35.664;-63.766;2023-06-10T00:27:03;6.13;;;4.65;;
59974;SDS011;62136;-35.664;-63.766;2023-06-10T00:29:32;4.45;;;4.05;;
59974;SDS011;62136;-35.664;-63.766;2023-06-10T00:31:59;5.57;;;4.78;;
59974;SDS011;62136;-35.664;-63.766;2023-06-10T00:34:26;5.25;;;4.45;;
59974;SDS011;62136;-35.664;-63.766;2023-06-10T00:36:53;6.20;;;4.82;;
59974;SDS011;62136;-35.664;-63.766;2023-06-10T00:39:20;6.32;;;4.43;;
59974;SDS011;62136;-35.664;-63.766;2023-06-10T00:41:47;5.30;;;4.80;;
59974;SDS011;62136;-35.664;-63.766;2023-06-10T00:44:15;5.07;;;4.63;;
59974;SDS011;62136;-35.664;-63.766;2023-06-10T00:46:42;5.07;;;4.40;;
59974;SDS011;62136;-35.664;-63.766;2023-06-10T00:49:10;4.85;;;4.30;;
59974;SDS011;62136;-35.664;-63.766;2023-06-10T00:51:37;5.28;;;4.45;;
59974;SDS011;62136;-35.664;-63.766;2023-06-10T00:54:05;6.90;;;4.47;;
59974;SDS011;62136;-35.664;-63.766;2023-06-10T00:56:33;5.30;;;4.38;;
59974;SDS011;62136;-35.664;-63.766;2023-06-10T00:59:00;6.05;;;4.93;;
59974;SDS011;62136;-35.664;-63.766;2023-06-10T01:01:28;5.88;;;3.88;;
59974;SDS011;62136;-35.664;-63.766;2023-06-10T01:03:55;5.78;;;4.07;;
59974;SDS011;62136;-35.664;-63.766;2023-06-10T01:06:41;6.05;;;4.07;;
59974;SDS011;62136;-35.664;-63.766;2023-06-10T01:09:18;6.63;;;3.72;;
59974;SDS011;62136;-35.664;-63.766;2023-06-10T01:12:11;4.30;;;3.90;;
59974;SDS011;62136;-35.664;-63.766;2023-06-10T01:14:52;4.45;;;4.05;;
59974;SDS011;62136;-35.664;-63.766;2023-06-10T01:17:20;4.68;;;4.18;;
59974;SDS011;62136;-35.664;-63.766;2023-06-10T01:19:56;4.60;;;3.65;;
59974;SDS011;62136;-35.664;-63.766;2023-06-10T01:22:26;5.25;;;4.28;;
59974;SDS011;62136;-35.664;-63.766;2023-06-10T01:24:55;5.15;;;4.00;;
59974;SDS011;62136;-35.664;-63.766;2023-06-10T01:27:29;5.15;;;4.10;;
59974;SDS011;62136;-35.664;-63.766;2023-06-10T01:30:05;4.03;;;3.50;;
59974;SDS011;62136;-35.664;-63.766;2023-06-10T01:32:40;4.60;;;4.13;;
59974;SDS011;62136;-35.664;-63.766;2023-06-10T01:35:15;6.63;;;4.15;;
59974;SDS011;62136;-35.664;-63.766;2023-06-10T01:37:45;6.68;;;3.85;;
59974;SDS011;62136;-35.664;-63.766;2023-06-10T01:40:14;4.72;;;3.42;;
59974;SDS011;62136;-35.664;-63.766;2023-06-10T01:42:42;5.40;;;3.90;;
59974;SDS011;62136;-35.664;-63.766;2023-06-10T01:45:12;5.78;;;3.17;;
59974;SDS011;62136;-35.664;-63.766;2023-06-10T01:50:52;4.13;;;3.13;;
59974;SDS011;62136;-35.664;-63.766;2023-06-10T01:53:25;3.70;;;3.40;;
59974;SDS011;62136;-35.664;-63.766;2023-06-10T01:55:52;4.15;;;3.75;;
59974;SDS011;62136;-35.664;-63.766;2023-06-10T01:58:19;4.53;;;3.53;;
59974;SDS011;62136;-35.664;-63.766;2023-06-10T02:00:46;5.13;;;3.53;;
59974;SDS011;62136;-35.664;-63.766;2023-06-10T02:03:13;5.13;;;3.22;;
59974;SDS011;62136;-35.664;-63.766;2023-06-10T02:05:40;3.65;;;3.22;;
59974;SDS011;62136;-35.664;-63.766;2023-06-10T02:08:08;6.57;;;3.90;;
59974;SDS011;62136;-35.664;-63.766;2023-06-10T02:10:35;4.88;;;3.28;;
59974;SDS011;62136;-35.664;-63.766;2023-06-10T02:13:02;4.25;;;3.55;;
59974;SDS011;62136;-35.664;-63.766;2023-06-10T02:15:30;3.72;;;3.42;;
59974;SDS011;62136;-35.664;-63.766;2023-06-10T02:18:00;3.95;;;3.20;;
59974;SDS011;62136;-35.664;-63.766;2023-06-10T02:20:31;5.78;;;3.88;;
59974;SDS011;62136;-35.664;-63.766;2023-06-10T02:22:58;3.95;;;3.15;;
59974;SDS011;62136;-35.664;-63.766;2023-06-10T02:25:25;4.18;;;3.10;;
59974;SDS011;62136;-35.664;-63.766;2023-06-10T02:27:52;4.55;;;3.10;;
59974;SDS011;62136;-35.664;-63.766;2023-06-10T02:30:19;3.10;;;2.80;;
59974;SDS011;62136;-35.664;-63.766;2023-06-10T02:32:46;3.20;;;2.75;;
59974;SDS011;62136;-35.664;-63.766;2023-06-10T02:35:14;3.03;;;2.70;;
59974;SDS011;62136;-35.664;-63.766;2023-06-10T02:37:43;2.78;;;2.38;;
59974;SDS011;62136;-35.664;-63.766;2023-06-10T02:40:11;3.63;;;3.00;;
59974;SDS011;62136;-35.664;-63.766;2023-06-10T02:42:38;3.83;;;3.00;;
59974;SDS011;62136;-35.664;-63.766;2023-06-10T02:45:05;3.95;;;3.30;;
59974;SDS011;62136;-35.664;-63.766;2023-06-10T02:47:33;3.25;;;2.85;;
59974;SDS011;62136;-35.664;-63.766;2023-06-10T02:50:04;3.55;;;3.10;;
59974;SDS011;62136;-35.664;-63.766;2023-06-10T02:52:32;4.22;;;3.38;;
59974;SDS011;62136;-35.664;-63.766;2023-06-10T02:54:59;2.97;;;2.67;;
59974;SDS011;62136;-35.664;-63.766;2023-06-10T02:57:26;3.83;;;3.10;;
59974;SDS011;62136;-35.664;-63.766;2023-06-10T02:59:59;4.88;;;2.80;;
59974;SDS011;62136;-35.664;-63.766;2023-06-10T03:02:37;3.85;;;2.60;;
59974;SDS011;62136;-35.664;-63.766;2023-06-10T03:05:04;3.80;;;2.65;;
59974;SDS011;62136;-35.664;-63.766;2023-06-10T03:07:36;3.80;;;2.92;;
59974;SDS011;62136;-35.664;-63.766;2023-06-10T03:10:03;3.20;;;2.35;;
59974;SDS011;62136;-35.664;-63.766;2023-06-10T03:12:31;2.58;;;2.03;;
59974;SDS011;62136;-35.664;-63.766;2023-06-10T03:14:58;2.45;;;2.25;;
59974;SDS011;62136;-35.664;-63.766;2023-06-10T03:17:25;3.83;;;2.45;;
59974;SDS011;62136;-35.664;-63.766;2023-06-10T03:19:52;2.97;;;2.63;;
59974;SDS011;62136;-35.664;-63.766;2023-06-10T03:22:22;2.58;;;2.15;;
59974;SDS011;62136;-35.664;-63.766;2023-06-10T03:24:49;2.63;;;2.42;;
59974;SDS011;62136;-35.664;-63.766;2023-06-10T03:27:17;4.45;;;2.45;;
59974;SDS011;62136;-35.664;-63.766;2023-06-10T03:29:47;4.20;;;2.40;;
59974;SDS011;62136;-35.664;-63.766;2023-06-10T03:32:14;3.15;;;2.58;;
59974;SDS011;62136;-35.664;-63.766;2023-06-10T03:34:46;3.42;;;2.53;;
59974;SDS011;62136;-35.664;-63.766;2023-06-10T03:37:14;4.50;;;2.20;;
59974;SDS011;62136;-35.664;-63.766;2023-06-10T03:39:41;3.28;;;2.53;;
59974;SDS011;62136;-35.664;-63.766;2023-06-10T03:42:08;3.15;;;2.30;;
59974;SDS011;62136;-35.664;-63.766;2023-06-10T03:44:38;2.78;;;2.03;;
59974;SDS011;62136;-35.664;-63.766;2023-06-10T03:47:05;2.10;;;1.90;;
59974;SDS011;62136;-35.664;-63.766;2023-06-10T03:49:32;2.47;;;2.10;;
59974;SDS011;62136;-35.664;-63.766;2023-06-10T03:51:59;3.17;;;1.88;;
59974;SDS011;62136;-35.664;-63.766;2023-06-10T03:54:29;2.30;;;1.88;;
59974;SDS011;62136;-35.664;-63.766;2023-06-10T03:56:57;2.83;;;1.90;;
59974;SDS011;62136;-35.664;-63.766;2023-06-10T03:59:24;2.90;;;2.17;;
59974;SDS011;62136;-35.664;-63.766;2023-06-10T04:01:51;2.45;;;2.05;;
59974;SDS011;62136;-35.664;-63.766;2023-06-10T04:04:18;4.50;;;2.40;;
59974;SDS011;62136;-35.664;-63.766;2023-06-10T04:06:45;2.67;;;1.90;;
59974;SDS011;62136;-35.664;-63.766;2023-06-10T04:09:16;2.08;;;1.90;;
59974;SDS011;62136;-35.664;-63.766;2023-06-10T04:11:43;3.22;;;2.20;;
59974;SDS011;62136;-35.664;-63.766;2023-06-10T04:14:10;3.30;;;1.98;;
59974;SDS011;62136;-35.664;-63.766;2023-06-10T04:16:39;2.45;;;1.80;;
59974;SDS011;62136;-35.664;-63.766;2023-06-10T04:19:07;2.50;;;2.30;;
59974;SDS011;62136;-35.664;-63.766;2023-06-10T04:21:34;2.78;;;2.25;;
59974;SDS011;62136;-35.664;-63.766;2023-06-10T04:24:02;2.10;;;1.95;;
59974;SDS011;62136;-35.664;-63.766;2023-06-10T04:26:29;2.60;;;1.70;;
59974;SDS011;62136;-35.664;-63.766;2023-06-10T04:28:56;3.03;;;1.70;;
59974;SDS011;62136;-35.664;-63.766;2023-06-10T04:31:23;2.33;;;1.50;;
59974;SDS011;62136;-35.664;-63.766;2023-06-10T04:33:50;2.80;;;1.65;;
59974;SDS011;62136;-35.664;-63.766;2023-06-10T04:36:17;2.50;;;1.83;;
59974;SDS011;62136;-35.664;-63.766;2023-06-10T04:38:44;1.55;;;1.45;;
59974;SDS011;62136;-35.664;-63.766;2023-06-10T04:41:12;2.33;;;1.60;;
59974;SDS011;62136;-35.664;-63.766;2023-06-10T04:43:39;2.38;;;1.70;;
59974;SDS011;62136;-35.664;-63.766;2023-06-10T04:46:06;2.47;;;1.70;;
59974;SDS011;62136;-35.664;-63.766;2023-06-10T04:48:34;2.10;;;1.90;;
59974;SDS011;62136;-35.664;-63.766;2023-06-10T04:51:01;2.05;;;1.58;;
59974;SDS011;62136;-35.664;-63.766;2023-06-10T04:53:28;1.60;;;1.50;;
59974;SDS011;62136;-35.664;-63.766;2023-06-10T04:55:56;1.77;;;1.67;;
59974;SDS011;62136;-35.664;-63.766;2023-06-10T04:58:23;2.08;;;1.88;;
59974;SDS011;62136;-35.664;-63.766;2023-06-10T05:00:50;2.75;;;1.65;;
59974;SDS011;62136;-35.664;-63.766;2023-06-10T05:03:17;2.15;;;1.63;;
59974;SDS011;62136;-35.664;-63.766;2023-06-10T05:05:44;3.95;;;1.90;;
59974;SDS011;62136;-35.664;-63.766;2023-06-10T05:08:11;3.40;;;1.42;;
59974;SDS011;62136;-35.664;-63.766;2023-06-10T05:10:38;1.85;;;1.55;;
59974;SDS011;62136;-35.664;-63.766;2023-06-10T05:13:05;3.15;;;1.42;;
59974;SDS011;62136;-35.664;-63.766;2023-06-10T05:15:32;1.67;;;1.40;;
59974;SDS011;62136;-35.664;-63.766;2023-06-10T05:17:59;1.80;;;1.30;;
59974;SDS011;62136;-35.664;-63.766;2023-06-10T05:20:28;1.65;;;1.55;;
59974;SDS011;62136;-35.664;-63.766;2023-06-10T05:22:55;2.00;;;1.60;;
59974;SDS011;62136;-35.664;-63.766;2023-06-10T05:25:22;2.03;;;1.48;;
59974;SDS011;62136;-35.664;-63.766;2023-06-10T05:27:49;1.85;;;1.63;;
59974;SDS011;62136;-35.664;-63.766;2023-06-10T05:30:16;2.25;;;1.50;;
59974;SDS011;62136;-35.664;-63.766;2023-06-10T05:32:44;1.88;;;1.42;;
59974;SDS011;62136;-35.664;-63.766;2023-06-10T05:35:11;2.47;;;1.63;;
59974;SDS011;62136;-35.664;-63.766;2023-06-10T05:37:38;2.20;;;1.65;;
59974;SDS011;62136;-35.664;-63.766;2023-06-10T05:40:05;1.77;;;1.35;;
59974;SDS011;62136;-35.664;-63.766;2023-06-10T05:42:33;1.50;;;1.40;;
59974;SDS011;62136;-35.664;-63.766;2023-06-10T05:45:00;2.38;;;1.27;;
59974;SDS011;62136;-35.664;-63.766;2023-06-10T05:47:27;1.20;;;1.10;;
59974;SDS011;62136;-35.664;-63.766;2023-06-10T05:49:55;2.22;;;1.27;;
59974;SDS011;62136;-35.664;-63.766;2023-06-10T05:52:22;1.30;;;1.20;;
59974;SDS011;62136;-35.664;-63.766;2023-06-10T05:54:49;1.77;;;1.20;;
59974;SDS011;62136;-35.664;-63.766;2023-06-10T05:57:17;1.65;;;1.25;;
59974;SDS011;62136;-35.664;-63.766;2023-06-10T05:59:44;2.30;;;1.17;;
59974;SDS011;62136;-35.664;-63.766;2023-06-10T06:02:11;1.40;;;1.10;;
59974;SDS011;62136;-35.664;-63.766;2023-06-10T06:04:38;1.08;;;0.93;;
59974;SDS011;62136;-35.664;-63.766;2023-06-10T06:07:05;1.50;;;1.15;;
59974;SDS011;62136;-35.664;-63.766;2023-06-10T06:09:32;1.58;;;1.40;;
59974;SDS011;62136;-35.664;-63.766;2023-06-10T06:11:59;1.75;;;1.48;;
59974;SDS011;62136;-35.664;-63.766;2023-06-10T06:14:26;1.20;;;1.10;;
59974;SDS011;62136;-35.664;-63.766;2023-06-10T06:16:56;1.83;;;1.20;;
59974;SDS011;62136;-35.664;-63.766;2023-06-10T06:19:23;1.80;;;1.20;;
59974;SDS011;62136;-35.664;-63.766;2023-06-10T06:21:50;1.52;;;1.23;;
59974;SDS011;62136;-35.664;-63.766;2023-06-10T06:24:17;1.33;;;1.20;;
59974;SDS011;62136;-35.664;-63.766;2023-06-10T06:26:44;1.48;;;0.90;;
59974;SDS011;62136;-35.664;-63.766;2023-06-10T06:29:11;1.60;;;1.00;;
59974;SDS011;62136;-35.664;-63.766;2023-06-10T06:31:38;1.85;;;1.00;;
59974;SDS011;62136;-35.664;-63.766;2023-06-10T06:34:05;3.30;;;1.38;;
59974;SDS011;62136;-35.664;-63.766;2023-06-10T06:36:32;0.88;;;0.88;;
59974;SDS011;62136;-35.664;-63.766;2023-06-10T06:39:00;3.20;;;1.20;;
59974;SDS011;62136;-35.664;-63.766;2023-06-10T06:41:27;3.08;;;1.20;;
59974;SDS011;62136;-35.664;-63.766;2023-06-10T06:43:57;1.42;;;0.90;;
59974;SDS011;62136;-35.664;-63.766;2023-06-10T06:46:24;1.33;;;0.90;;
59974;SDS011;62136;-35.664;-63.766;2023-06-10T06:48:51;1.58;;;1.20;;
59974;SDS011;62136;-35.664;-63.766;2023-06-10T06:51:18;1.98;;;1.00;;
59974;SDS011;62136;-35.664;-63.766;2023-06-10T06:53:45;1.15;;;1.00;;
59974;SDS011;62136;-35.664;-63.766;2023-06-10T06:56:15;0.90;;;0.90;;
59974;SDS011;62136;-35.664;-63.766;2023-06-10T06:58:42;1.38;;;1.20;;
59974;SDS011;62136;-35.664;-63.766;2023-06-10T07:01:09;0.80;;;0.77;;
59974;SDS011;62136;-35.664;-63.766;2023-06-10T07:03:36;1.52;;;1.10;;
59974;SDS011;62136;-35.664;-63.766;2023-06-10T07:06:03;1.75;;;1.15;;
59974;SDS011;62136;-35.664;-63.766;2023-06-10T07:08:31;1.52;;;1.17;;
59974;SDS011;62136;-35.664;-63.766;2023-06-10T07:10:58;1.50;;;0.82;;
59974;SDS011;62136;-35.664;-63.766;2023-06-10T07:13:25;0.80;;;0.80;;
59974;SDS011;62136;-35.664;-63.766;2023-06-10T07:15:52;1.02;;;0.90;;
59974;SDS011;62136;-35.664;-63.766;2023-06-10T07:18:19;0.75;;;0.70;;
59974;SDS011;62136;-35.664;-63.766;2023-06-10T07:20:46;1.38;;;0.80;;
59974;SDS011;62136;-35.664;-63.766;2023-06-10T07:23:13;0.80;;;0.80;;
59974;SDS011;62136;-35.664;-63.766;2023-06-10T07:25:41;0.95;;;0.80;;
59974;SDS011;62136;-35.664;-63.766;2023-06-10T07:28:08;0.93;;;0.82;;
59974;SDS011;62136;-35.664;-63.766;2023-06-10T07:30:35;1.65;;;0.90;;
59974;SDS011;62136;-35.664;-63.766;2023-06-10T07:33:03;1.52;;;1.00;;
59974;SDS011;62136;-35.664;-63.766;2023-06-10T07:35:33;0.73;;;0.68;;
59974;SDS011;62136;-35.664;-63.766;2023-06-10T07:38:00;1.38;;;0.90;;
59974;SDS011;62136;-35.664;-63.766;2023-06-10T07:40:29;2.13;;;0.85;;
59974;SDS011;62136;-35.664;-63.766;2023-06-10T07:42:56;2.65;;;0.75;;
59974;SDS011;62136;-35.664;-63.766;2023-06-10T07:45:23;1.10;;;0.70;;
59974;SDS011;62136;-35.664;-63.766;2023-06-10T07:47:50;0.95;;;0.90;;
59974;SDS011;62136;-35.664;-63.766;2023-06-10T07:50:17;0.75;;;0.70;;
59974;SDS011;62136;-35.664;-63.766;2023-06-10T07:52:44;1.92;;;0.73;;
59974;SDS011;62136;-35.664;-63.766;2023-06-10T07:55:11;1.30;;;0.68;;
59974;SDS011;62136;-35.664;-63.766;2023-06-10T07:57:38;1.48;;;0.80;;
59974;SDS011;62136;-35.664;-63.766;2023-06-10T08:00:06;0.77;;;0.70;;
59974;SDS011;62136;-35.664;-63.766;2023-06-10T08:02:34;1.88;;;0.80;;
59974;SDS011;62136;-35.664;-63.766;2023-06-10T08:05:01;0.85;;;0.80;;
59974;SDS011;62136;-35.664;-63.766;2023-06-10T08:07:28;0.85;;;0.60;;
59974;SDS011;62136;-35.664;-63.766;2023-06-10T08:09:56;1.33;;;0.88;;
59974;SDS011;62136;-35.664;-63.766;2023-06-10T08:12:23;0.90;;;0.70;;
59974;SDS011;62136;-35.664;-63.766;2023-06-10T08:14:50;0.98;;;0.70;;
59974;SDS011;62136;-35.664;-63.766;2023-06-10T08:17:17;1.10;;;1.00;;
59974;SDS011;62136;-35.664;-63.766;2023-06-10T08:19:44;0.90;;;0.70;;
59974;SDS011;62136;-35.664;-63.766;2023-06-10T08:22:11;1.15;;;0.77;;
59974;SDS011;62136;-35.664;-63.766;2023-06-10T08:24:38;0.80;;;0.80;;
59974;SDS011;62136;-35.664;-63.766;2023-06-10T08:27:05;0.98;;;0.77;;
59974;SDS011;62136;-35.664;-63.766;2023-06-10T08:29:32;2.65;;;0.68;;
59974;SDS011;62136;-35.664;-63.766;2023-06-10T08:31:59;0.60;;;0.60;;
59974;SDS011;62136;-35.664;-63.766;2023-06-10T08:34:27;0.88;;;0.60;;
59974;SDS011;62136;-35.664;-63.766;2023-06-10T08:36:54;0.65;;;0.55;;
59974;SDS011;62136;-35.664;-63.766;2023-06-10T08:39:21;1.50;;;0.80;;
59974;SDS011;62136;-35.664;-63.766;2023-06-10T08:41:51;0.82;;;0.68;;
59974;SDS011;62136;-35.664;-63.766;2023-06-10T08:44:38;1.35;;;0.70;;
59974;SDS011;62136;-35.664;-63.766;2023-06-10T08:47:17;0.70;;;0.63;;
59974;SDS011;62136;-35.664;-63.766;2023-06-10T08:49:46;1.13;;;1.02;;
59974;SDS011;62136;-35.664;-63.766;2023-06-10T08:52:20;0.50;;;0.50;;
59974;SDS011;62136;-35.664;-63.766;2023-06-10T08:54:56;0.80;;;0.80;;
59974;SDS011;62136;-35.664;-63.766;2023-06-10T08:57:29;0.60;;;0.60;;
59974;SDS011;62136;-35.664;-63.766;2023-06-10T08:59:57;1.20;;;0.60;;
59974;SDS011;62136;-35.664;-63.766;2023-06-10T09:02:25;0.70;;;0.70;;
59974;SDS011;62136;-35.664;-63.766;2023-06-10T09:04:53;1.58;;;0.50;;
59974;SDS011;62136;-35.664;-63.766;2023-06-10T09:07:21;0.47;;;0.47;;
59974;SDS011;62136;-35.664;-63.766;2023-06-10T09:09:49;0.77;;;0.60;;
59974;SDS011;62136;-35.664;-63.766;2023-06-10T09:12:19;0.73;;;0.70;;
59974;SDS011;62136;-35.664;-63.766;2023-06-10T09:14:46;0.88;;;0.50;;
59974;SDS011;62136;-35.664;-63.766;2023-06-10T09:17:13;0.65;;;0.50;;
59974;SDS011;62136;-35.664;-63.766;2023-06-10T09:19:41;1.27;;;0.70;;
59974;SDS011;62136;-35.664;-63.766;2023-06-10T09:22:10;1.27;;;0.82;;
59974;SDS011;62136;-35.664;-63.766;2023-06-10T09:24:37;1.00;;;0.57;;
59974;SDS011;62136;-35.664;-63.766;2023-06-10T09:27:07;1.83;;;0.70;;
59974;SDS011;62136;-35.664;-63.766;2023-06-10T09:29:56;1.23;;;0.57;;
59974;SDS011;62136;-35.664;-63.766;2023-06-10T09:32:23;1.33;;;0.63;;
59974;SDS011;62136;-35.664;-63.766;2023-06-10T09:34:50;0.63;;;0.50;;
59974;SDS011;62136;-35.664;-63.766;2023-06-10T09:37:21;0.60;;;0.50;;
59974;SDS011;62136;-35.664;-63.766;2023-06-10T09:40:05;0.65;;;0.50;;
59974;SDS011;62136;-35.664;-63.766;2023-06-10T09:42:34;0.68;;;0.45;;
59974;SDS011;62136;-35.664;-63.766;2023-06-10T09:45:05;1.08;;;0.55;;
59974;SDS011;62136;-35.664;-63.766;2023-06-10T09:47:33;0.45;;;0.45;;
59974;SDS011;62136;-35.664;-63.766;2023-06-10T09:50:00;0.85;;;0.50;;
59974;SDS011;62136;-35.664;-63.766;2023-06-10T09:52:28;0.50;;;0.50;;
59974;SDS011;62136;-35.664;-63.766;2023-06-10T09:54:59;0.50;;;0.50;;
59974;SDS011;62136;-35.664;-63.766;2023-06-10T09:57:31;0.50;;;0.50;;
59974;SDS011;62136;-35.664;-63.766;2023-06-10T10:00:10;0.55;;;0.50;;
59974;SDS011;62136;-35.664;-63.766;2023-06-10T10:03:11;0.52;;;0.50;;
59974;SDS011;62136;-35.664;-63.766;2023-06-10T10:05:32;0.65;;;0.52;;
59974;SDS011;62136;-35.664;-63.766;2023-06-10T10:07:59;0.40;;;0.40;;
59974;SDS011;62136;-35.664;-63.766;2023-06-10T10:10:26;0.55;;;0.40;;
59974;SDS011;62136;-35.664;-63.766;2023-06-10T10:12:56;0.50;;;0.50;;
59974;SDS011;62136;-35.664;-63.766;2023-06-10T10:15:24;1.30;;;0.57;;
59974;SDS011;62136;-35.664;-63.766;2023-06-10T10:20:26;1.15;;;0.45;;
59974;SDS011;62136;-35.664;-63.766;2023-06-10T10:22:56;1.75;;;0.65;;
59974;SDS011;62136;-35.664;-63.766;2023-06-10T10:25:28;0.55;;;0.50;;
59974;SDS011;62136;-35.664;-63.766;2023-06-10T10:30:35;0.40;;;0.40;;
59974;SDS011;62136;-35.664;-63.766;2023-06-10T10:33:19;0.52;;;0.35;;
59974;SDS011;62136;-35.664;-63.766;2023-06-10T10:35:57;0.40;;;0.40;;
59974;SDS011;62136;-35.664;-63.766;2023-06-10T10:38:25;0.57;;;0.52;;
59974;SDS011;62136;-35.664;-63.766;2023-06-10T10:40:53;1.30;;;0.65;;
59974;SDS011;62136;-35.664;-63.766;2023-06-10T10:43:25;0.82;;;0.45;;
59974;SDS011;62136;-35.664;-63.766;2023-06-10T10:46:11;0.50;;;0.50;;
59974;SDS011;62136;-35.664;-63.766;2023-06-10T10:48:40;0.40;;;0.40;;
59974;SDS011;62136;-35.664;-63.766;2023-06-10T10:51:08;0.40;;;0.40;;
59974;SDS011;62136;-35.664;-63.766;2023-06-10T10:53:39;0.50;;;0.50;;
59974;SDS011;62136;-35.664;-63.766;2023-06-10T10:56:13;0.50;;;0.50;;
59974;SDS011;62136;-35.664;-63.766;2023-06-10T10:59:01;1.08;;;0.40;;
59974;SDS011;62136;-35.664;-63.766;2023-06-10T11:01:43;0.65;;;0.40;;
59974;SDS011;62136;-35.664;-63.766;2023-06-10T11:04:12;0.57;;;0.57;;
59974;SDS011;62136;-35.664;-63.766;2023-06-10T11:07:25;1.05;;;0.60;;
59974;SDS011;62136;-35.664;-63.766;2023-06-10T11:09:33;1.35;;;0.50;;
59974;SDS011;62136;-35.664;-63.766;2023-06-10T11:12:01;0.55;;;0.50;;
59974;SDS011;62136;-35.664;-63.766;2023-06-10T11:14:31;0.50;;;0.50;;
59974;SDS011;62136;-35.664;-63.766;2023-06-10T11:17:00;1.05;;;0.40;;
59974;SDS011;62136;-35.664;-63.766;2023-06-10T11:19:34;0.38;;;0.38;;
59974;SDS011;62136;-35.664;-63.766;2023-06-10T11:22:08;0.50;;;0.50;;
59974;SDS011;62136;-35.664;-63.766;2023-06-10T11:24:41;0.43;;;0.43;;
59974;SDS011;62136;-35.664;-63.766;2023-06-10T11:29:57;0.60;;;0.60;;
59974;SDS011;62136;-35.664;-63.766;2023-06-10T11:32:44;0.60;;;0.57;;
59974;SDS011;62136;-35.664;-63.766;2023-06-10T11:35:13;0.70;;;0.60;;
59974;SDS011;62136;-35.664;-63.766;2023-06-10T11:37:40;1.75;;;0.30;;
59974;SDS011;62136;-35.664;-63.766;2023-06-10T11:40:07;3.20;;;0.60;;
59974;SDS011;62136;-35.664;-63.766;2023-06-10T11:42:38;0.55;;;0.40;;
59974;SDS011;62136;-35.664;-63.766;2023-06-10T11:45:09;1.67;;;0.50;;
59974;SDS011;62136;-35.664;-63.766;2023-06-10T11:47:41;0.52;;;0.40;;
59974;SDS011;62136;-35.664;-63.766;2023-06-10T11:50:29;0.57;;;0.57;;
59974;SDS011;62136;-35.664;-63.766;2023-06-10T11:52:59;0.50;;;0.50;;
59974;SDS011;62136;-35.664;-63.766;2023-06-10T11:55:42;0.70;;;0.50;;
59974;SDS011;62136;-35.664;-63.766;2023-06-10T12:00:48;0.85;;;0.60;;
59974;SDS011;62136;-35.664;-63.766;2023-06-10T12:03:17;0.40;;;0.40;;
59974;SDS011;62136;-35.664;-63.766;2023-06-10T12:06:00;0.57;;;0.57;;
59974;SDS011;62136;-35.664;-63.766;2023-06-10T12:08:29;0.75;;;0.45;;
59974;SDS011;62136;-35.664;-63.766;2023-06-10T12:10:56;0.70;;;0.68;;
59974;SDS011;62136;-35.664;-63.766;2023-06-10T12:13:27;0.70;;;0.60;;
59974;SDS011;62136;-35.664;-63.766;2023-06-10T12:15:54;0.50;;;0.50;;
59974;SDS011;62136;-35.664;-63.766;2023-06-10T12:18:31;0.93;;;0.32;;
59974;SDS011;62136;-35.664;-63.766;2023-06-10T12:20:58;0.40;;;0.40;;
59974;SDS011;62136;-35.664;-63.766;2023-06-10T12:23:26;1.30;;;0.55;;
59974;SDS011;62136;-35.664;-63.766;2023-06-10T12:25:54;1.98;;;0.50;;
59974;SDS011;62136;-35.664;-63.766;2023-06-10T12:28:22;0.40;;;0.40;;
59974;SDS011;62136;-35.664;-63.766;2023-06-10T12:30:50;0.43;;;0.43;;
59974;SDS011;62136;-35.664;-63.766;2023-06-10T12:33:31;0.73;;;0.40;;
59974;SDS011;62136;-35.664;-63.766;2023-06-10T12:35:58;0.50;;;0.50;;
59974;SDS011;62136;-35.664;-63.766;2023-06-10T12:38:25;0.50;;;0.40;;
59974;SDS011;62136;-35.664;-63.766;2023-06-10T12:40:53;0.70;;;0.47;;
59974;SDS011;62136;-35.664;-63.766;2023-06-10T12:43:25;0.52;;;0.40;;
59974;SDS011;62136;-35.664;-63.766;2023-06-10T12:45:52;0.95;;;0.50;;
59974;SDS011;62136;-35.664;-63.766;2023-06-10T12:48:21;0.93;;;0.57;;
59974;SDS011;62136;-35.664;-63.766;2023-06-10T12:50:56;1.35;;;0.63;;
59974;SDS011;62136;-35.664;-63.766;2023-06-10T12:53:25;0.82;;;0.43;;
59974;SDS011;62136;-35.664;-63.766;2023-06-10T12:55:52;0.55;;;0.40;;
59974;SDS011;62136;-35.664;-63.766;2023-06-10T12:58:20;0.70;;;0.50;;
59974;SDS011;62136;-35.664;-63.766;2023-06-10T13:00:47;0.60;;;0.60;;
59974;SDS011;62136;-35.664;-63.766;2023-06-10T13:03:18;1.08;;;0.52;;
59974;SDS011;62136;-35.664;-63.766;2023-06-10T13:05:45;1.05;;;0.50;;
59974;SDS011;62136;-35.664;-63.766;2023-06-10T13:08:12;0.50;;;0.50;;
59974;SDS011;62136;-35.664;-63.766;2023-06-10T13:10:39;0.68;;;0.50;;
59974;SDS011;62136;-35.664;-63.766;2023-06-10T13:13:06;0.73;;;0.60;;
59974;SDS011;62136;-35.664;-63.766;2023-06-10T13:15:35;0.85;;;0.57;;
59974;SDS011;62136;-35.664;-63.766;2023-06-10T13:18:02;0.77;;;0.60;;
59974;SDS011;62136;-35.664;-63.766;2023-06-10T13:20:30;0.75;;;0.55;;
59974;SDS011;62136;-35.664;-63.766;2023-06-10T13:22:57;0.50;;;0.50;;
59974;SDS011;62136;-35.664;-63.766;2023-06-10T13:25:24;1.73;;;0.60;;
59974;SDS011;62136;-35.664;-63.766;2023-06-10T13:27:51;1.15;;;0.60;;
59974;SDS011;62136;-35.664;-63.766;2023-06-10T13:30:18;1.15;;;0.57;;
59974;SDS011;62136;-35.664;-63.766;2023-06-10T13:32:46;1.02;;;0.60;;
59974;SDS011;62136;-35.664;-63.766;2023-06-10T13:35:14;1.10;;;0.63;;
59974;SDS011;62136;-35.664;-63.766;2023-06-10T13:37:41;0.70;;;0.60;;
59974;SDS011;62136;-35.664;-63.766;2023-06-10T13:40:08;1.35;;;0.52;;
59974;SDS011;62136;-35.664;-63.766;2023-06-10T13:42:36;1.67;;;0.50;;
59974;SDS011;62136;-35.664;-63.766;2023-06-10T13:45:03;0.50;;;0.50;;
59974;SDS011;62136;-35.664;-63.766;2023-06-10T13:47:31;0.95;;;0.50;;
59974;SDS011;62136;-35.664;-63.766;2023-06-10T13:49:58;0.90;;;0.50;;
59974;SDS011;62136;-35.664;-63.766;2023-06-10T13:52:25;1.65;;;0.60;;
59974;SDS011;62136;-35.664;-63.766;2023-06-10T13:54:52;0.75;;;0.40;;
59974;SDS011;62136;-35.664;-63.766;2023-06-10T13:57:19;0.50;;;0.50;;
59974;SDS011;62136;-35.664;-63.766;2023-06-10T13:59:46;1.05;;;0.47;;
59974;SDS011;62136;-35.664;-63.766;2023-06-10T14:02:13;0.50;;;0.50;;
59974;SDS011;62136;-35.664;-63.766;2023-06-10T14:04:40;0.95;;;0.45;;
59974;SDS011;62136;-35.664;-63.766;2023-06-10T14:07:08;1.55;;;0.60;;
59974;SDS011;62136;-35.664;-63.766;2023-06-10T14:09:35;1.45;;;0.50;;
59974;SDS011;62136;-35.664;-63.766;2023-06-10T14:12:02;2.13;;;0.70;;
59974;SDS011;62136;-35.664;-63.766;2023-06-10T14:14:30;1.17;;;0.60;;
59974;SDS011;62136;-35.664;-63.766;2023-06-10T14:16:58;0.93;;;0.68;;
59974;SDS011;62136;-35.664;-63.766;2023-06-10T14:19:34;0.88;;;0.63;;
59974;SDS011;62136;-35.664;-63.766;2023-06-10T14:22:39;1.20;;;0.50;;
59974;SDS011;62136;-35.664;-63.766;2023-06-10T14:25:07;3.25;;;0.80;;
59974;SDS011;62136;-35.664;-63.766;2023-06-10T14:27:34;2.42;;;0.63;;
59974;SDS011;62136;-35.664;-63.766;2023-06-10T14:30:01;3.13;;;0.70;;
59974;SDS011;62136;-35.664;-63.766;2023-06-10T14:32:29;2.22;;;0.60;;
59974;SDS011;62136;-35.664;-63.766;2023-06-10T14:34:56;3.42;;;0.77;;